Time;durP1;ratioP1;P1;durP2;ratioP2;P2;SDS_P1;SDS_P2;PMS_P1;PMS_P2;Temp;Humidity;BMP_temperature;BMP_pressure;BME280_temperature;BME280_humidity;BME280_pressure;Samples;Min_cycle;Max_cycle;Signal;HPM_P1;HPM_P2
2021/03/01 00:00:13;;;;;;;14.83;8.40;;;;;;;0.08;72.12;97642.06;4999805;28;20589;-80
2021/03/01 00:02:41;;;;;;;16.40;9.10;;;;;;;0.05;72.19;97644.78;5007442;28;20471;-78
2021/03/01 00:05:08;;;;;;;15.93;8.90;;;;;;;0.02;71.87;97640.56;4988594;28;20468;-77
2021/03/01 00:07:34;;;;;;;17.73;8.40;;;;;;;0.05;71.40;97650.78;4998797;28;20465;-78
2021/03/01 00:10:00;;;;;;;15.57;9.37;;;;;;;0.08;71.53;97644.66;5003777;28;20471;-77
2021/03/01 00:12:26;;;;;;;15.60;8.83;;;;;;;0.04;72.08;97649.09;4998051;28;20854;-78
2021/03/01 00:14:52;;;;;;;15.23;8.03;;;;;;;-0.03;72.01;97650.25;4998076;28;20042;-77
2021/03/01 00:17:18;;;;;;;14.70;7.93;;;;;;;-0.06;72.11;97647.78;5000678;28;21053;-77
2021/03/01 00:19:43;;;;;;;14.13;8.90;;;;;;;-0.07;72.17;97649.53;5023436;28;20894;-77
2021/03/01 00:22:09;;;;;;;15.17;8.17;;;;;;;0.01;71.50;97656.16;4985623;28;20026;-77
2021/03/01 00:24:35;;;;;;;14.13;8.43;;;;;;;0.09;70.98;97654.09;5001992;28;20803;-78
2021/03/01 00:27:00;;;;;;;15.07;7.60;;;;;;;0.03;70.87;97649.97;5002818;28;20131;-78
2021/03/01 00:29:26;;;;;;;13.40;7.03;;;;;;;0.05;70.71;97655.13;5021717;28;20045;-77
2021/03/01 00:31:52;;;;;;;13.10;7.67;;;;;;;0.04;70.74;97659.44;5001610;28;20041;-80
2021/03/01 00:34:17;;;;;;;16.00;7.87;;;;;;;0.06;70.55;97657.63;5019713;28;20029;-79
2021/03/01 00:36:43;;;;;;;15.27;7.13;;;;;;;0.07;70.29;97656.75;5003308;28;20054;-80
2021/03/01 00:39:08;;;;;;;13.60;7.63;;;;;;;0.04;70.80;97656.03;5015360;28;20026;-77
2021/03/01 00:41:34;;;;;;;14.23;8.07;;;;;;;0.00;70.68;97660.47;5004222;28;20072;-77
2021/03/01 00:44:00;;;;;;;13.53;7.87;;;;;;;-0.07;70.81;97651.25;4994936;28;20040;-78
2021/03/01 00:46:26;;;;;;;12.87;7.50;;;;;;;-0.07;71.26;97661.59;4990820;28;20057;-79
2021/03/01 00:48:52;;;;;;;14.83;8.20;;;;;;;-0.09;71.27;97653.91;4989559;28;20480;-76
2021/03/01 00:51:17;;;;;;;13.30;7.07;;;;;;;0.00;70.60;97660.47;4998614;28;20040;-77
2021/03/01 00:53:43;;;;;;;13.10;6.73;;;;;;;0.02;70.34;97658.66;4996900;28;20454;-77
2021/03/01 00:56:09;;;;;;;12.03;7.70;;;;;;;0.05;70.22;97655.94;5004955;28;20359;-78
2021/03/01 00:58:37;;;;;;;12.83;7.70;;;;;;;0.09;70.19;97657.50;4982415;28;20293;-78
2021/03/01 01:01:03;;;;;;;13.20;7.83;;;;;;;0.07;69.72;97654.16;4984245;28;20530;-78
2021/03/01 01:03:29;;;;;;;14.50;7.70;;;;;;;0.07;70.15;97651.56;4999157;28;20445;-77
2021/03/01 01:06:01;;;;;;;12.37;6.70;;;;;;;0.06;69.71;97652.47;5007939;28;20495;-77
2021/03/01 01:08:26;;;;;;;14.43;7.80;;;;;;;0.16;69.59;97656.38;5002855;28;21013;-77
2021/03/01 01:10:52;;;;;;;13.60;7.60;;;;;;;0.11;69.72;97649.72;4997782;28;20492;-78
2021/03/01 01:13:18;;;;;;;13.63;7.53;;;;;;;0.16;69.90;97660.69;4993635;28;20026;-77
2021/03/01 01:15:44;;;;;;;14.57;7.47;;;;;;;0.15;69.70;97654.69;4996850;28;20034;-77
2021/03/01 01:18:10;;;;;;;12.33;7.87;;;;;;;0.08;70.36;97655.00;5000366;28;20041;-77
2021/03/01 01:20:35;;;;;;;12.77;8.00;;;;;;;0.02;70.27;97652.66;5000301;28;20504;-80
2021/03/01 01:23:01;;;;;;;12.17;7.63;;;;;;;-0.01;70.90;97651.00;4983313;28;20091;-77
2021/03/01 01:25:27;;;;;;;15.83;7.90;;;;;;;-0.04;70.51;97653.72;4999172;28;20022;-79
2021/03/01 01:27:53;;;;;;;14.03;8.37;;;;;;;-0.09;71.30;97653.91;4986630;28;20033;-77
2021/03/01 01:30:21;;;;;;;13.17;7.37;;;;;;;-0.02;71.21;97647.59;5001425;28;20025;-78
2021/03/01 01:32:47;;;;;;;11.97;7.57;;;;;;;-0.01;71.04;97645.84;4980830;28;20025;-77
2021/03/01 01:35:13;;;;;;;15.40;7.80;;;;;;;0.04;70.60;97643.94;5023814;28;21461;-77
2021/03/01 01:37:40;;;;;;;15.10;8.07;;;;;;;-0.02;70.91;97649.34;5014078;28;20083;-77
2021/03/01 01:40:08;;;;;;;12.57;7.53;;;;;;;0.07;70.42;97646.41;5007565;28;20900;-77
2021/03/01 01:42:34;;;;;;;13.30;7.50;;;;;;;-0.02;70.77;97649.34;5020799;28;20469;-77
2021/03/01 01:45:00;;;;;;;11.60;7.20;;;;;;;-0.12;71.37;97643.69;4987158;28;20495;-77
2021/03/01 01:47:26;;;;;;;13.17;7.30;;;;;;;-0.14;71.70;97649.81;4983601;28;20036;-77
2021/03/01 01:49:52;;;;;;;15.13;8.13;;;;;;;-0.20;71.70;97647.44;4983646;28;20996;-78
2021/03/01 01:52:18;;;;;;;13.20;8.30;;;;;;;-0.24;71.75;97647.56;5013615;28;20104;-78
2021/03/01 01:54:44;;;;;;;14.23;8.70;;;;;;;-0.23;71.61;97648.44;4996205;28;20157;-77
2021/03/01 01:57:12;;;;;;;14.20;9.00;;;;;;;-0.28;72.01;97643.41;4991565;28;20034;-77
2021/03/01 01:59:38;;;;;;;11.87;7.50;;;;;;;-0.27;72.17;97652.88;4993954;28;20524;-78
2021/03/01 02:02:04;;;;;;;14.73;8.47;;;;;;;-0.31;72.00;97635.75;4996474;28;21563;-77
2021/03/01 02:04:56;;;;;;;14.13;8.60;;;;;;;-0.31;72.06;97638.34;5001315;28;20452;-77
2021/03/01 02:07:39;;;;;;;13.07;8.63;;;;;;;-0.29;71.85;97635.72;4976701;28;20065;-77
2021/03/01 02:10:29;;;;;;;17.27;9.23;;;;;;;-0.36;72.18;97642.03;5024333;28;21046;-78
2021/03/01 02:13:17;;;;;;;14.77;8.23;;;;;;;-0.40;72.48;97646.47;5014326;28;20037;-77
2021/03/01 02:15:51;;;;;;;14.43;8.60;;;;;;;-0.44;72.56;97639.72;4999805;28;20468;-77
2021/03/01 02:18:16;;;;;;;17.97;9.47;;;;;;;-0.59;73.75;97630.78;5005514;28;20488;-77
2021/03/01 02:20:46;;;;;;;13.37;8.77;;;;;;;-0.57;73.42;97641.06;4999768;28;20464;-77
2021/03/01 02:23:14;;;;;;;15.40;9.87;;;;;;;-0.64;73.82;97631.84;4979243;28;20390;-80
2021/03/01 02:25:59;;;;;;;18.40;9.73;;;;;;;-0.75;74.08;97630.50;4990523;28;20460;-77
2021/03/01 02:28:29;;;;;;;19.33;11.53;;;;;;;-0.82;74.66;97625.63;5001975;28;21308;-77
2021/03/01 02:30:57;;;;;;;17.23;10.20;;;;;;;-0.88;74.88;97625.84;5001873;28;20479;-77
2021/03/01 02:33:32;;;;;;;13.93;9.03;;;;;;;-0.78;74.69;97627.19;5015395;28;20835;-78
2021/03/01 02:36:02;;;;;;;18.43;9.40;;;;;;;-0.82;74.60;97620.47;4990813;28;20524;-79
2021/03/01 02:38:29;;;;;;;14.47;9.13;;;;;;;-0.87;74.83;97612.88;4967207;28;21358;-77
2021/03/01 02:40:58;;;;;;;15.87;9.20;;;;;;;-0.86;74.93;97617.16;4987406;28;20965;-77
2021/03/01 02:43:25;;;;;;;16.50;9.80;;;;;;;-0.90;75.23;97618.16;5010866;28;20486;-78
2021/03/01 02:45:52;;;;;;;15.93;8.67;;;;;;;-0.90;74.87;97617.31;5022663;28;20440;-77
2021/03/01 02:48:19;;;;;;;18.03;10.20;;;;;;;-0.97;75.18;97616.69;5000771;28;20464;-77
2021/03/01 02:50:46;;;;;;;14.17;8.70;;;;;;;-1.03;75.50;97622.91;4998058;28;20475;-79
2021/03/01 02:53:13;;;;;;;16.60;9.13;;;;;;;-1.07;76.08;97623.09;4992824;28;20468;-78
2021/03/01 02:55:43;;;;;;;17.33;9.17;;;;;;;-1.11;76.20;97616.31;4995662;28;20547;-77
2021/03/01 02:58:10;;;;;;;18.17;9.73;;;;;;;-1.13;76.48;97616.38;4995516;28;20485;-78
2021/03/01 03:00:36;;;;;;;16.93;9.53;;;;;;;-1.07;75.93;97608.44;5017015;28;20521;-77
2021/03/01 03:03:05;;;;;;;13.60;8.80;;;;;;;-1.08;75.82;97608.47;4992069;28;20492;-77
2021/03/01 03:05:31;;;;;;;14.90;9.07;;;;;;;-1.09;75.88;97612.78;4997849;28;20449;-77
2021/03/01 03:07:58;;;;;;;15.40;9.07;;;;;;;-1.11;75.55;97608.56;5019703;28;20452;-77
2021/03/01 03:10:25;;;;;;;13.93;8.60;;;;;;;-1.10;76.18;97615.44;5002637;28;20502;-77
2021/03/01 03:12:51;;;;;;;14.87;9.20;;;;;;;-1.12;75.99;97612.06;4991289;28;20494;-77
2021/03/01 03:15:20;;;;;;;14.63;8.97;;;;;;;-1.16;76.44;97613.91;4997893;28;20429;-80
2021/03/01 03:17:50;;;;;;;16.20;8.93;;;;;;;-1.16;76.64;97607.91;5023021;28;21043;-77
2021/03/01 03:20:16;;;;;;;14.90;8.67;;;;;;;-1.21;76.42;97611.50;5001230;28;20508;-78
2021/03/01 03:22:42;;;;;;;18.73;10.53;;;;;;;-1.16;76.36;97610.50;5021375;28;20439;-77
2021/03/01 03:25:09;;;;;;;17.60;9.60;;;;;;;-1.19;76.29;97612.28;5006248;28;20126;-77
2021/03/01 03:27:35;;;;;;;16.43;9.27;;;;;;;-1.17;76.17;97608.78;5002457;28;20511;-77
2021/03/01 03:30:01;;;;;;;16.73;9.70;;;;;;;-1.19;76.44;97607.09;4985469;28;20456;-77
2021/03/01 03:32:27;;;;;;;16.30;10.03;;;;;;;-1.21;76.30;97605.47;5023766;28;20626;-78
2021/03/01 03:34:53;;;;;;;16.33;9.37;;;;;;;-1.21;76.50;97608.91;5003253;28;20452;-78
2021/03/01 03:37:43;;;;;;;17.50;9.57;;;;;;;-1.27;76.74;97605.72;5008888;28;20033;-77
2021/03/01 03:40:12;;;;;;;16.80;9.50;;;;;;;-1.31;76.82;97612.72;5009907;28;20696;-78
2021/03/01 03:42:39;;;;;;;16.57;9.83;;;;;;;-1.34;76.70;97602.50;4995657;28;20467;-77
2021/03/01 03:45:07;;;;;;;18.07;10.13;;;;;;;-1.33;76.76;97601.59;4980295;28;20461;-77
2021/03/01 03:47:34;;;;;;;15.20;8.90;;;;;;;-1.32;76.75;97602.44;5023693;28;20456;-78
2021/03/01 03:50:02;;;;;;;15.97;9.93;;;;;;;-1.38;76.76;97606.03;5004541;28;20446;-79
2021/03/01 03:52:30;;;;;;;15.67;9.83;;;;;;;-1.39;77.14;97601.78;4998022;28;20868;-77
2021/03/01 03:54:59;;;;;;;15.87;9.57;;;;;;;-1.40;77.20;97607.00;5003615;28;20487;-77
2021/03/01 03:57:30;;;;;;;16.13;8.87;;;;;;;-1.41;76.87;97601.00;5001201;28;20467;-79
2021/03/01 03:59:57;;;;;;;19.47;10.10;;;;;;;-1.43;77.08;97603.63;4995613;28;20470;-78
2021/03/01 04:02:25;;;;;;;15.17;9.57;;;;;;;-1.45;77.15;97605.41;5015498;28;20455;-77
2021/03/01 04:04:52;;;;;;;16.77;9.77;;;;;;;-1.47;77.37;97603.81;5006806;28;20578;-77
2021/03/01 04:07:23;;;;;;;16.23;9.53;;;;;;;-1.50;77.70;97606.47;4987672;28;20483;-78
2021/03/01 04:09:50;;;;;;;15.60;9.57;;;;;;;-1.50;77.42;97606.47;5001902;28;20515;-77
2021/03/01 04:12:17;;;;;;;18.47;10.63;;;;;;;-1.50;77.89;97604.75;4998400;28;20465;-78
2021/03/01 04:14:47;;;;;;;16.90;9.50;;;;;;;-1.56;77.77;97609.25;4986935;28;20572;-80
2021/03/01 04:17:16;;;;;;;18.03;10.47;;;;;;;-1.58;77.94;97609.28;5013891;28;21287;-77
2021/03/01 04:19:45;;;;;;;17.60;10.50;;;;;;;-1.59;77.82;97611.94;4993856;28;20499;-77
2021/03/01 04:22:13;;;;;;;16.27;10.03;;;;;;;-1.63;77.95;97615.53;5001926;28;20539;-77
2021/03/01 04:24:41;;;;;;;16.90;9.53;;;;;;;-1.66;78.34;97613.88;5005156;28;20457;-78
2021/03/01 04:27:09;;;;;;;18.07;9.40;;;;;;;-1.63;78.31;97618.09;5004528;28;20506;-77
2021/03/01 04:29:35;;;;;;;16.07;10.10;;;;;;;-1.61;77.71;97618.88;4994028;28;20492;-78
2021/03/01 04:32:01;;;;;;;19.17;10.43;;;;;;;-1.56;77.70;97625.56;4998568;28;20473;-77
2021/03/01 04:34:27;;;;;;;17.03;9.83;;;;;;;-1.56;77.67;97623.00;5029110;28;20490;-77
2021/03/01 04:36:55;;;;;;;17.07;9.80;;;;;;;-1.49;77.53;97624.47;5006178;28;20660;-77
2021/03/01 04:39:22;;;;;;;17.93;10.53;;;;;;;-1.45;77.56;97620.06;5012091;28;20459;-77
2021/03/01 04:41:48;;;;;;;15.20;9.03;;;;;;;-1.50;77.17;97616.81;5010286;28;20539;-77
2021/03/01 04:44:16;;;;;;;16.50;9.40;;;;;;;-1.51;77.45;97615.09;4998114;28;20476;-77
2021/03/01 04:46:45;;;;;;;16.57;10.47;;;;;;;-1.47;77.45;97624.44;4991913;28;20456;-79
2021/03/01 04:49:11;;;;;;;19.83;10.17;;;;;;;-1.46;77.61;97623.53;5016232;28;21104;-77
2021/03/01 04:51:40;;;;;;;19.07;9.47;;;;;;;-1.46;77.20;97626.13;5008646;28;20464;-79
2021/03/01 04:54:06;;;;;;;17.93;10.10;;;;;;;-1.50;77.61;97621.97;4998919;28;20826;-79
2021/03/01 04:56:32;;;;;;;19.53;10.27;;;;;;;-1.49;77.22;97619.31;4998760;28;20445;-77
2021/03/01 04:58:59;;;;;;;18.20;9.83;;;;;;;-1.46;77.59;97620.97;5016521;28;20491;-77
2021/03/01 05:01:25;;;;;;;16.40;10.10;;;;;;;-1.47;77.54;97617.53;5003467;28;20113;-76
2021/03/01 05:03:52;;;;;;;18.13;10.00;;;;;;;-1.40;77.40;97617.34;4986060;28;20520;-79
2021/03/01 05:06:20;;;;;;;18.63;9.57;;;;;;;-1.38;77.57;97625.84;5002927;28;20484;-77
2021/03/01 05:08:49;;;;;;;17.47;9.50;;;;;;;-1.44;77.67;97619.19;4993475;28;20464;-77
2021/03/01 05:11:30;;;;;;;17.77;9.67;;;;;;;-1.46;77.89;97621.78;5019599;28;20479;-77
2021/03/01 05:13:56;;;;;;;16.43;9.60;;;;;;;-1.53;78.17;97625.47;5002929;28;20460;-77
2021/03/01 05:16:24;;;;;;;18.83;10.57;;;;;;;-1.57;78.05;97617.91;5010154;28;20440;-77
2021/03/01 05:18:50;;;;;;;17.57;10.50;;;;;;;-1.56;77.89;97622.16;4993109;28;20471;-77
2021/03/01 05:21:15;;;;;;;17.27;10.17;;;;;;;-1.62;78.12;97625.78;5001620;28;20460;-77
2021/03/01 05:23:41;;;;;;;17.30;9.90;;;;;;;-1.64;77.86;97618.97;4980671;28;20036;-77
2021/03/01 05:26:08;;;;;;;18.67;10.00;;;;;;;-1.66;78.47;97612.13;4984436;28;20635;-77
2021/03/01 05:28:36;;;;;;;15.77;9.30;;;;;;;-1.66;78.37;97622.44;5009409;28;20043;-77
2021/03/01 05:31:03;;;;;;;18.97;11.47;;;;;;;-1.69;78.56;97619.97;5002728;28;20595;-78
2021/03/01 05:33:29;;;;;;;17.77;10.53;;;;;;;-1.73;79.18;97623.56;4996916;28;21064;-77
2021/03/01 05:35:55;;;;;;;16.30;9.63;;;;;;;-1.71;78.47;97615.75;5001140;28;20469;-78
2021/03/01 05:38:21;;;;;;;18.47;11.00;;;;;;;-1.65;78.89;97623.28;5008618;28;20526;-78
2021/03/01 05:40:47;;;;;;;18.00;10.73;;;;;;;-1.64;78.78;97621.56;4974058;28;20085;-77
2021/03/01 05:43:15;;;;;;;17.33;10.03;;;;;;;-1.51;78.36;97617.66;5005024;28;20457;-78
2021/03/01 05:45:43;;;;;;;18.10;10.53;;;;;;;-1.49;78.45;97626.22;4998697;28;20503;-77
2021/03/01 05:48:11;;;;;;;15.70;9.97;;;;;;;-1.38;78.39;97621.53;5001339;28;20458;-77
2021/03/01 05:50:44;;;;;;;17.43;9.07;;;;;;;-1.36;78.29;97624.06;5003451;28;20481;-78
2021/03/01 05:53:12;;;;;;;19.37;10.63;;;;;;;-1.38;78.02;97616.38;4984845;28;20473;-79
2021/03/01 05:55:39;;;;;;;15.60;9.03;;;;;;;-1.39;78.12;97625.00;5007838;28;20452;-77
2021/03/01 05:58:07;;;;;;;15.73;9.37;;;;;;;-1.37;78.03;97622.41;4980998;28;20857;-77
2021/03/01 06:00:34;;;;;;;20.73;11.17;;;;;;;-1.40;78.27;97620.75;4992241;28;20469;-77
2021/03/01 06:03:01;;;;;;;15.97;9.47;;;;;;;-1.33;78.29;97619.66;5004096;28;20498;-77
2021/03/01 06:05:28;;;;;;;16.73;9.87;;;;;;;-1.33;78.16;97629.13;5003638;28;20622;-77
2021/03/01 06:07:57;;;;;;;16.13;9.80;;;;;;;-1.31;77.68;97625.63;5014033;28;20447;-77
2021/03/01 06:10:24;;;;;;;14.17;9.13;;;;;;;-1.25;77.20;97627.97;4995072;28;20476;-77
2021/03/01 06:12:50;;;;;;;16.80;10.00;;;;;;;-1.24;77.71;97632.25;5017629;28;20464;-77
2021/03/01 06:15:17;;;;;;;18.47;10.53;;;;;;;-1.08;77.24;97623.97;5009227;28;20065;-77
2021/03/01 06:18:03;;;;;;;19.27;11.53;;;;;;;-0.73;76.40;97625.31;4977938;28;20065;-77
2021/03/01 06:20:28;;;;;;;15.60;9.77;;;;;;;-0.64;75.54;97626.69;4987209;28;20464;-77
2021/03/01 06:22:54;;;;;;;14.77;9.30;;;;;;;-0.54;74.72;97628.03;4983351;28;20481;-77
2021/03/01 06:25:20;;;;;;;15.87;9.73;;;;;;;-0.15;73.52;97633.44;4992736;28;20391;-80
2021/03/01 06:27:45;;;;;;;18.80;10.87;;;;;;;0.07;72.40;97624.84;5004761;28;20018;-77
2021/03/01 06:30:12;;;;;;;19.37;9.97;;;;;;;0.43;71.48;97627.69;4994906;28;20495;-77
2021/03/01 06:32:39;;;;;;;16.83;9.07;;;;;;;0.89;69.89;97623.19;5018205;28;20025;-77
2021/03/01 06:35:34;;;;;;;16.23;9.73;;;;;;;1.32;67.41;97629.94;4983468;28;20499;-77
2021/03/01 06:38:36;;;;;;;19.03;9.87;;;;;;;1.04;68.77;97626.88;4992148;28;20484;-77
2021/03/01 06:41:21;;;;;;;16.37;9.27;;;;;;;1.64;67.50;97632.84;5016699;28;20480;-77
2021/03/01 06:43:57;;;;;;;15.17;10.13;;;;;;;1.49;67.27;97634.38;4997710;28;20456;-77
2021/03/01 06:46:29;;;;;;;15.47;8.63;;;;;;;1.71;66.66;97636.00;5004003;28;20549;-77
2021/03/01 06:48:55;;;;;;;17.53;10.17;;;;;;;2.17;65.39;97637.28;4989438;28;20578;-78
2021/03/01 06:51:20;;;;;;;16.50;9.97;;;;;;;2.04;64.96;97642.22;5012956;28;20556;-78
2021/03/01 06:53:58;;;;;;;15.30;9.50;;;;;;;2.07;65.12;97636.88;5005667;28;20026;-78
2021/03/01 06:56:36;;;;;;;17.37;9.97;;;;;;;2.45;63.18;97642.00;4984452;28;20965;-76
2021/03/01 06:59:15;;;;;;;16.10;10.30;;;;;;;3.26;61.16;97637.09;5002497;28;20452;-78
2021/03/01 07:01:56;;;;;;;17.83;11.00;;;;;;;3.47;59.94;97635.13;4994238;28;20644;-78
2021/03/01 07:04:23;;;;;;;20.23;11.80;;;;;;;2.21;64.74;97646.59;5016802;28;20467;-78
2021/03/01 07:06:51;;;;;;;19.30;11.87;;;;;;;2.99;62.76;97645.38;4980622;28;20459;-77
2021/03/01 07:09:19;;;;;;;17.77;11.27;;;;;;;2.92;62.18;97645.75;4981223;28;21122;-77
2021/03/01 07:11:45;;;;;;;19.70;11.53;;;;;;;3.79;58.84;97638.63;5009442;28;20484;-79
2021/03/01 07:14:33;;;;;;;19.60;11.53;;;;;;;3.81;58.27;97643.72;5009236;28;20461;-81
2021/03/01 07:17:03;;;;;;;17.70;10.47;;;;;;;3.17;60.42;97650.56;4998108;28;20648;-80
2021/03/01 07:19:39;;;;;;;19.53;12.20;;;;;;;2.84;62.64;97653.94;4990204;28;20571;-80
2021/03/01 07:22:07;;;;;;;18.30;12.00;;;;;;;3.34;60.47;97644.47;4997061;28;20505;-79
2021/03/01 07:24:33;;;;;;;18.27;11.50;;;;;;;3.44;59.87;97646.50;5003186;28;20550;-81
2021/03/01 07:27:01;;;;;;;20.83;11.53;;;;;;;3.93;59.70;97649.09;5016866;28;20453;-77
2021/03/01 07:29:42;;;;;;;18.33;11.50;;;;;;;5.25;56.22;97653.78;5016293;28;20464;-77
2021/03/01 07:32:12;;;;;;;16.37;10.67;;;;;;;5.15;56.57;97643.91;4993098;28;20535;-78
2021/03/01 07:34:40;;;;;;;16.37;10.97;;;;;;;6.07;53.46;97642.66;4984786;28;20499;-77
2021/03/01 07:37:06;;;;;;;21.40;11.30;;;;;;;5.13;55.38;97651.00;4998123;28;20481;-78
2021/03/01 07:39:33;;;;;;;15.83;10.20;;;;;;;5.36;54.86;97651.38;4994391;28;20452;-78
2021/03/01 07:42:00;;;;;;;23.90;10.40;;;;;;;4.37;57.23;97663.22;4997061;28;20037;-80
2021/03/01 07:44:28;;;;;;;15.23;9.07;;;;;;;4.52;57.13;97657.13;4998203;28;20033;-78
2021/03/01 07:46:55;;;;;;;16.27;10.73;;;;;;;4.17;58.22;97656.50;5018023;28;20061;-78
2021/03/01 07:49:37;;;;;;;15.17;9.57;;;;;;;5.03;56.42;97641.16;5001729;28;20034;-79
2021/03/01 07:52:03;;;;;;;15.03;10.03;;;;;;;4.91;55.38;97645.34;4983705;28;20034;-78
2021/03/01 07:55:02;;;;;;;16.90;10.13;;;;;;;5.65;55.44;97636.56;4979560;28;20025;-78
2021/03/01 07:57:33;;;;;;;18.43;9.20;;;;;;;5.44;54.73;97639.53;5003644;28;20037;-78
2021/03/01 08:00:20;;;;;;;16.93;10.03;;;;;;;5.16;56.43;97640.38;4978809;28;20048;-78
2021/03/01 08:02:46;;;;;;;21.17;9.50;;;;;;;5.75;55.23;97642.88;4996803;28;20041;-80
2021/03/01 08:05:38;;;;;;;17.90;10.20;;;;;;;5.84;54.64;97641.50;5009939;28;20108;-78
2021/03/01 08:08:04;;;;;;;14.60;8.83;;;;;;;6.32;53.99;97645.41;5013446;28;20500;-78
2021/03/01 08:10:42;;;;;;;16.30;9.37;;;;;;;7.16;50.92;97644.28;4969700;28;20034;-79
2021/03/01 08:13:08;;;;;;;15.00;9.30;;;;;;;6.46;52.78;97646.31;5013777;28;20034;-78
2021/03/01 08:15:40;;;;;;;14.60;9.13;;;;;;;6.33;53.51;97644.47;5007759;28;20672;-78
2021/03/01 08:18:08;;;;;;;14.50;8.83;;;;;;;6.08;54.39;97645.19;5002861;28;20033;-78
2021/03/01 08:20:36;;;;;;;16.30;10.57;;;;;;;5.91;54.73;97648.84;5011562;28;20217;-78
2021/03/01 08:23:06;;;;;;;15.10;9.20;;;;;;;6.83;51.43;97640.34;4993623;28;20030;-80
2021/03/01 08:25:48;;;;;;;11.97;8.33;;;;;;;7.08;51.65;97638.72;4984320;28;20029;-79
2021/03/01 08:28:17;;;;;;;14.80;8.90;;;;;;;8.57;48.52;97633.56;4985224;28;20044;-78
2021/03/01 08:30:45;;;;;;;15.33;9.13;;;;;;;7.88;48.67;97625.38;5002371;28;20075;-79
2021/03/01 08:33:10;;;;;;;14.70;9.37;;;;;;;8.83;45.71;97619.34;4998629;28;20152;-80
2021/03/01 08:35:41;;;;;;;14.73;8.83;;;;;;;8.94;46.42;97611.50;5002227;28;20723;-79
2021/03/01 08:38:09;;;;;;;13.87;8.50;;;;;;;9.66;44.01;97613.06;4990701;28;20062;-80
2021/03/01 08:40:55;;;;;;;13.70;8.60;;;;;;;10.50;42.96;97608.97;4983222;28;20029;-80
2021/03/01 08:43:39;;;;;;;16.40;7.77;;;;;;;10.47;42.85;97611.88;5017934;28;20507;-80
2021/03/01 08:46:06;;;;;;;13.65;8.05;;;;;;;10.20;42.98;97614.91;5003549;28;20037;-78
2021/03/01 08:48:39;;;;;;;12.93;9.00;;;;;;;8.94;45.53;97611.50;4982173;28;20026;-79
2021/03/01 08:51:09;;;;;;;;;;;;;;;10.08;43.36;97615.88;4983476;28;20021;-79
2021/03/01 08:53:35;;;;;;;13.00;8.37;;;;;;;10.75;42.00;97617.50;4992871;28;19917;-79
2021/03/01 08:56:02;;;;;;;13.37;8.87;;;;;;;9.34;44.59;97615.53;5009659;28;20061;-80
2021/03/01 08:58:33;;;;;;;12.70;8.70;;;;;;;9.48;44.64;97611.84;5004602;28;20033;-79
2021/03/01 09:01:04;;;;;;;12.63;8.57;;;;;;;10.37;43.74;97611.78;4986161;28;20034;-78
2021/03/01 09:03:40;;;;;;;12.90;8.17;;;;;;;9.40;43.77;97617.69;5006412;28;20026;-80
2021/03/01 09:06:14;;;;;;;13.20;8.70;;;;;;;9.93;41.96;97610.03;4983330;28;20117;-81
2021/03/01 09:08:42;;;;;;;13.30;8.47;;;;;;;11.44;40.19;97599.38;5002029;28;20045;-80
2021/03/01 09:11:16;;;;;;;10.33;7.63;;;;;;;11.63;38.80;97598.63;4994848;28;20067;-81
2021/03/01 09:13:44;;;;;;;10.27;6.90;;;;;;;11.81;38.74;97596.22;4982639;28;20031;-80
2021/03/01 09:16:18;;;;;;;10.93;7.57;;;;;;;12.49;36.98;97601.66;5008695;28;20055;-79
2021/03/01 09:18:48;;;;;;;10.70;7.37;;;;;;;12.31;37.01;97609.41;5008837;28;20033;-80
2021/03/01 09:21:16;;;;;;;11.17;7.10;;;;;;;11.13;39.25;97608.19;5014112;28;20038;-80
2021/03/01 09:23:50;;;;;;;11.37;7.73;;;;;;;12.08;37.95;97610.63;5020463;28;20018;-80
2021/03/01 09:26:31;;;;;;;11.97;7.53;;;;;;;12.76;35.31;97603.59;5002147;28;20061;-80
2021/03/01 09:29:18;;;;;;;10.57;7.03;;;;;;;11.62;36.67;97609.31;4999941;28;20017;-80
2021/03/01 09:31:46;;;;;;;10.47;6.80;;;;;;;11.21;37.92;97603.13;5000608;28;20120;-78
2021/03/01 09:34:15;;;;;;;9.87;6.23;;;;;;;13.11;33.75;97596.91;5000877;28;20022;-79
2021/03/01 09:36:48;;;;;;;10.67;6.67;;;;;;;13.03;33.17;97594.16;4983385;28;20788;-79
2021/03/01 09:39:25;;;;;;;10.43;6.13;;;;;;;11.80;35.47;97600.66;4993973;28;20112;-81
2021/03/01 09:41:53;;;;;;;10.30;6.27;;;;;;;12.21;33.55;97593.56;5009866;28;20049;-80
2021/03/01 09:44:25;;;;;;;9.07;5.53;;;;;;;11.87;34.95;97600.13;5001163;28;20025;-79
2021/03/01 09:46:55;;;;;;;8.47;5.67;;;;;;;12.16;33.89;97601.03;5004966;28;20068;-80
2021/03/01 09:49:21;;;;;;;8.80;6.10;;;;;;;12.25;33.28;97602.03;4981931;28;20030;-78
2021/03/01 09:51:49;;;;;;;11.70;6.70;;;;;;;11.50;33.99;97588.31;5004619;28;20033;-80
2021/03/01 09:54:22;;;;;;;10.03;5.43;;;;;;;11.38;34.50;97599.06;4992713;28;20508;-80
2021/03/01 09:56:50;;;;;;;9.77;6.10;;;;;;;12.07;34.20;97585.19;4991948;28;20108;-79
2021/03/01 09:59:33;;;;;;;9.23;6.03;;;;;;;11.45;33.50;97590.50;5001427;28;20041;-80
2021/03/01 10:02:10;;;;;;;10.80;6.53;;;;;;;10.72;35.20;97599.31;5005589;28;20045;-79
2021/03/01 10:04:36;;;;;;;9.43;5.47;;;;;;;11.40;34.23;97591.84;4994586;28;20037;-80
2021/03/01 10:07:23;;;;;;;11.40;6.27;;;;;;;12.08;32.58;97597.44;4991126;28;20072;-78
2021/03/01 10:09:50;;;;;;;9.73;5.67;;;;;;;10.83;33.61;97599.25;5010319;28;20055;-80
2021/03/01 10:12:16;;;;;;;12.30;6.17;;;;;;;10.56;34.57;97605.00;4990178;28;20033;-80
2021/03/01 10:14:58;;;;;;;7.83;5.23;;;;;;;11.05;32.85;97599.16;5008701;28;20036;-78
2021/03/01 10:17:28;;;;;;;10.87;6.27;;;;;;;11.32;33.05;97590.72;5010787;28;20037;-79
2021/03/01 10:20:15;;;;;;;10.83;6.03;;;;;;;11.83;32.87;97588.97;5001307;28;20276;-80
2021/03/01 10:23:09;;;;;;;10.17;5.47;;;;;;;11.87;31.92;97581.66;4986959;28;20042;-79
2021/03/01 10:25:42;;;;;;;9.10;5.82;;;;;;;11.61;33.94;97589.19;5017872;28;20037;-79
2021/03/01 10:28:20;;;;;;;11.40;6.75;;;;;;;13.79;31.84;97576.44;4994347;28;20453;-81
2021/03/01 10:31:05;;;;;;;9.63;6.97;;;;;;;12.30;35.70;97576.06;4995777;28;20034;-79
2021/03/01 10:33:56;;;;;;;11.37;6.73;;;;;;;12.36;34.40;97585.25;5012071;28;20040;-80
2021/03/01 10:36:32;;;;;;;13.17;7.57;;;;;;;12.39;34.55;97585.81;4999488;28;20069;-79
2021/03/01 10:39:14;;;;;;;12.07;7.23;;;;;;;12.74;35.70;97584.44;5020436;28;20651;-80
2021/03/01 10:41:49;;;;;;;8.93;5.90;;;;;;;12.93;32.07;97578.31;4999786;28;20041;-79
2021/03/01 10:44:16;;;;;;;10.87;7.13;;;;;;;13.11;33.72;97581.03;5013496;28;20095;-81
2021/03/01 10:46:48;;;;;;;11.47;7.23;;;;;;;13.93;32.30;97579.56;4989349;28;20025;-80
2021/03/01 10:49:30;;;;;;;12.07;6.83;;;;;;;14.47;30.71;97580.47;5001307;28;20037;-82
2021/03/01 10:51:59;;;;;;;11.43;7.00;;;;;;;12.80;33.42;97575.94;5004095;28;20034;-81
2021/03/01 10:54:27;;;;;;;19.60;11.80;;;;;;;13.96;33.02;97569.53;4997647;28;20040;-80
2021/03/01 10:56:54;;;;;;;11.03;6.87;;;;;;;13.30;32.63;97569.66;4984318;28;20036;-80
2021/03/01 10:59:20;;;;;;;26.73;17.53;;;;;;;14.85;31.69;97561.66;5015685;28;20038;-79
2021/03/01 11:01:47;;;;;;;10.63;6.90;;;;;;;13.93;31.98;97567.16;4994976;28;20034;-80
2021/03/01 11:04:18;;;;;;;9.63;6.40;;;;;;;13.45;32.33;97565.56;4980269;28;20034;-81
2021/03/01 11:06:51;;;;;;;9.60;7.07;;;;;;;12.81;33.17;97575.00;5007710;28;20033;-81
2021/03/01 11:09:22;;;;;;;10.85;7.05;;;;;;;13.97;32.03;97567.69;4984743;28;20040;-81
2021/03/01 11:11:54;;;;;;;12.97;6.80;;;;;;;14.10;32.12;97563.72;5010358;28;20068;-79
2021/03/01 11:14:35;;;;;;;9.53;5.73;;;;;;;12.78;32.78;97574.44;4998779;28;20040;-80
2021/03/01 11:17:02;;;;;;;8.10;5.70;;;;;;;12.43;32.99;97571.38;4991417;28;20484;-80
2021/03/01 11:19:29;;;;;;;11.00;7.13;;;;;;;13.79;32.50;97571.13;4980197;28;20560;-79
2021/03/01 11:21:55;;;;;;;11.13;6.93;;;;;;;13.81;31.86;97569.16;4979515;28;20034;-80
2021/03/01 11:24:22;;;;;;;18.23;11.80;;;;;;;13.67;32.42;97572.28;4987429;28;20044;-78
2021/03/01 11:26:51;;;;;;;9.13;6.27;;;;;;;12.89;33.24;97556.63;4998334;28;20029;-78
2021/03/01 11:29:18;;;;;;;10.80;6.63;;;;;;;13.09;32.21;97556.59;5002877;28;20037;-80
2021/03/01 11:31:47;;;;;;;9.73;6.00;;;;;;;12.61;32.48;97563.63;5001489;28;20091;-79
2021/03/01 11:34:13;;;;;;;9.23;5.80;;;;;;;13.06;32.62;97551.59;4979292;28;20492;-79
2021/03/01 11:36:39;;;;;;;11.77;6.60;;;;;;;14.33;31.21;97547.44;4981830;28;20120;-78
2021/03/01 11:39:13;;;;;;;7.53;5.53;;;;;;;14.57;31.28;97549.50;4979887;28;20029;-78